Time;durP1;ratioP1;P1;durP2;ratioP2;P2;SDS_P1;SDS_P2;PMS_P1;PMS_P2;Temp;Humidity;BMP_temperature;BMP_pressure;BME280_temperature;BME280_humidity;BME280_pressure;Samples;Min_cycle;Max_cycle;Signal;HPM_P1;HPM_P2
2020/12/14 00:01:41;;;;;;;1.95;0.93;;;;;;;-0.42;100.00;100819.67;1781957;80;21121;-52
2020/12/14 00:04:09;;;;;;;0.35;0.33;;;;;;;-0.44;100.00;100813.67;1800367;79;21574;-52
2020/12/14 00:06:37;;;;;;;0.53;0.53;;;;;;;-0.45;100.00;100822.21;1790890;79;21696;-52
2020/12/14 00:09:05;;;;;;;0.10;0.10;;;;;;;-0.42;100.00;100818.82;1766637;79;21127;-52
2020/12/14 00:11:36;;;;;;;1.15;0.70;;;;;;;-0.42;100.00;100825.53;1800232;79;21157;-53
2020/12/14 00:14:04;;;;;;;1.17;0.73;;;;;;;-0.44;100.00;100822.55;1771885;80;21653;-52
2020/12/14 00:16:31;;;;;;;0.00;0.00;;;;;;;-0.44;100.00;100827.09;1791847;79;21746;-51
2020/12/14 00:18:59;;;;;;;0.10;0.10;;;;;;;-0.42;100.00;100818.33;1779362;79;21147;-53
2020/12/14 00:21:26;;;;;;;2.35;0.65;;;;;;;-0.42;100.00;100822.36;1778387;80;21115;-52
2020/12/14 00:23:54;;;;;;;0.62;0.62;;;;;;;-0.42;100.00;100822.84;1756230;80;21593;-52
2020/12/14 00:26:21;;;;;;;1.27;1.17;;;;;;;-0.42;100.00;100825.53;1757956;80;21143;-52
2020/12/14 00:28:49;;;;;;;0.50;0.45;;;;;;;-0.43;100.00;100816.66;1759218;80;21150;-52
2020/12/14 00:31:17;;;;;;;10.53;1.40;;;;;;;-0.41;100.00;100819.16;1790754;78;21166;-52
2020/12/14 00:33:45;;;;;;;0.65;0.65;;;;;;;-0.41;100.00;100820.50;1762352;80;21126;-53
2020/12/14 00:36:12;;;;;;;0.10;0.10;;;;;;;-0.41;100.00;100816.47;1821943;78;21158;-52
2020/12/14 00:38:40;;;;;;;1.98;0.68;;;;;;;-0.44;100.00;100815.83;1763115;80;21095;-53
2020/12/14 00:41:10;;;;;;;0.15;0.15;;;;;;;-0.42;100.00;100814.80;1758847;81;21150;-53
2020/12/14 00:43:38;;;;;;;0.45;0.28;;;;;;;-0.42;100.00;100813.45;1782082;80;21132;-52
2020/12/14 00:46:07;;;;;;;0.53;0.30;;;;;;;-0.44;100.00;100815.02;1778332;79;21168;-52
2020/12/14 00:48:34;;;;;;;0.00;0.00;;;;;;;-0.46;100.00;100819.22;1787138;79;21131;-53
2020/12/14 00:51:02;;;;;;;1.00;0.37;;;;;;;-0.46;100.00;100813.86;1771922;79;21870;-53
2020/12/14 00:53:31;;;;;;;13.83;1.10;;;;;;;-0.45;100.00;100812.81;1771633;79;21490;-52
2020/12/14 00:56:03;;;;;;;0.40;0.40;;;;;;;-0.46;100.00;100808.48;1771355;81;21119;-52
2020/12/14 00:58:31;;;;;;;0.47;0.47;;;;;;;-0.46;100.00;100804.98;1770833;79;21165;-54
2020/12/14 01:00:59;;;;;;;0.28;0.28;;;;;;;-0.48;100.00;100809.19;1781968;80;21135;-54
2020/12/14 01:03:26;;;;;;;0.20;0.20;;;;;;;-0.47;100.00;100809.52;1781798;79;21150;-53
2020/12/14 01:05:54;;;;;;;0.10;0.10;;;;;;;-0.48;100.00;100811.88;1791703;79;21169;-52
2020/12/14 01:08:22;;;;;;;0.45;0.37;;;;;;;-0.49;100.00;100802.18;1802910;79;21504;-53
2020/12/14 01:10:50;;;;;;;0.20;0.20;;;;;;;-0.49;100.00;100804.86;1783671;79;21605;-53
2020/12/14 01:13:17;;;;;;;0.25;0.25;;;;;;;-0.48;100.00;100805.17;1758926;81;21150;-53
2020/12/14 01:15:46;;;;;;;0.10;0.10;;;;;;;-0.48;100.00;100805.17;1783777;80;21194;-53
2020/12/14 01:18:15;;;;;;;0.75;0.75;;;;;;;-0.49;100.00;100803.52;1790202;79;21131;-53
2020/12/14 01:20:43;;;;;;;0.20;0.20;;;;;;;-0.50;100.00;100802.36;1778271;80;21739;-54
2020/12/14 01:23:10;;;;;;;2.17;0.57;;;;;;;-0.50;100.00;100806.39;1757369;81;21159;-53
2020/12/14 01:25:38;;;;;;;0.10;0.10;;;;;;;-0.49;100.00;100805.38;1761087;80;21204;-53
2020/12/14 01:28:06;;;;;;;0.20;0.20;;;;;;;-0.50;100.00;100796.47;1758771;81;21570;-54
2020/12/14 01:30:34;;;;;;;0.47;0.47;;;;;;;-0.51;100.00;100801.55;1781118;80;21138;-54
2020/12/14 01:33:02;;;;;;;0.03;0.03;;;;;;;-0.50;100.00;100802.36;1765715;80;21123;-55
2020/12/14 01:35:30;;;;;;;0.55;0.55;;;;;;;-0.49;100.00;100802.70;1774686;80;21088;-54
2020/12/14 01:37:57;;;;;;;9.08;0.45;;;;;;;-0.51;100.00;100794.83;1759276;80;21143;-55
2020/12/14 01:40:25;;;;;;;0.20;0.20;;;;;;;-0.53;100.00;100794.19;1788481;80;21119;-54
2020/12/14 01:42:52;;;;;;;1.55;0.65;;;;;;;-0.51;100.00;100800.20;1790080;80;21185;-54
2020/12/14 01:45:20;;;;;;;0.17;0.17;;;;;;;-0.52;100.00;100792.33;1794028;79;21158;-54
2020/12/14 01:47:49;;;;;;;0.65;0.55;;;;;;;-0.52;100.00;100791.84;1790192;80;21150;-55
2020/12/14 01:50:17;;;;;;;4.00;0.57;;;;;;;-0.53;100.00;100795.53;1790145;78;21181;-54
2020/12/14 01:52:45;;;;;;;0.68;0.68;;;;;;;-0.53;100.00;100798.22;1756842;80;21163;-55
2020/12/14 01:55:16;;;;;;;0.13;0.13;;;;;;;-0.53;100.00;100794.19;1762690;80;21129;-54
2020/12/14 01:57:44;;;;;;;0.30;0.30;;;;;;;-0.53;100.00;100799.56;1790084;80;21178;-55
2020/12/14 02:00:11;;;;;;;2.27;0.90;;;;;;;-0.53;100.00;100798.73;1803637;78;21107;-55
2020/12/14 02:02:39;;;;;;;1.02;0.90;;;;;;;-0.53;100.00;100798.22;1761467;80;21120;-55
2020/12/14 02:05:07;;;;;;;1.95;1.02;;;;;;;-0.53;100.00;100792.85;1750537;81;21550;-54
2020/12/14 02:07:35;;;;;;;0.33;0.33;;;;;;;-0.53;100.00;100800.08;1768044;79;21126;-54
2020/12/14 02:10:03;;;;;;;0.20;0.20;;;;;;;-0.53;100.00;100796.87;1786069;80;21206;-54
2020/12/14 02:12:30;;;;;;;0.47;0.47;;;;;;;-0.53;100.00;100801.42;1790084;80;21147;-54
2020/12/14 02:14:58;;;;;;;0.00;0.00;;;;;;;-0.50;100.00;100797.81;1770294;80;21223;-55
2020/12/14 02:17:26;;;;;;;1.02;0.50;;;;;;;-0.52;100.00;100794.53;1786726;80;21186;-55
2020/12/14 02:19:54;;;;;;;0.25;0.25;;;;;;;-0.55;100.00;100793.55;1788874;80;21123;-55
2020/12/14 02:22:23;;;;;;;0.37;0.37;;;;;;;-0.55;100.00;100789.53;1758934;80;21155;-55
2020/12/14 02:25:00;;;;;;;0.53;0.53;;;;;;;-0.55;100.00;100792.73;1789873;79;21112;-55
2020/12/14 02:27:29;;;;;;;0.20;0.20;;;;;;;-0.55;100.00;100788.19;1775968;80;21171;-55
2020/12/14 02:29:56;;;;;;;0.37;0.37;;;;;;;-0.57;100.00;100787.58;1772707;80;21166;-55
2020/12/14 02:32:25;;;;;;;0.05;0.05;;;;;;;-0.58;100.00;100789.11;1767886;80;21635;-54
2020/12/14 02:34:54;;;;;;;0.20;0.20;;;;;;;-0.59;100.00;100785.61;1769479;80;21602;-55
2020/12/14 02:37:25;;;;;;;0.65;0.65;;;;;;;-0.58;100.00;100783.22;1784406;80;21203;-55
2020/12/14 02:39:53;;;;;;;0.10;0.10;;;;;;;-0.60;100.00;100787.95;1770502;80;21155;-55
2020/12/14 02:42:23;;;;;;;0.47;0.47;;;;;;;-0.61;100.00;100784.14;1791710;80;21190;-55
2020/12/14 02:44:51;;;;;;;0.37;0.37;;;;;;;-0.59;100.00;100787.44;1792577;79;21130;-56
2020/12/14 02:47:19;;;;;;;0.15;0.15;;;;;;;-0.58;100.00;100785.91;1799878;79;21110;-56
2020/12/14 02:49:47;;;;;;;1.12;0.50;;;;;;;-0.57;100.00;100787.58;1783576;80;21552;-56
2020/12/14 02:52:14;;;;;;;1.22;0.40;;;;;;;-0.58;100.00;100791.27;1747356;82;21146;-56
2020/12/14 02:54:44;;;;;;;0.00;0.00;;;;;;;-0.56;100.00;100793.25;1764780;80;21541;-56
2020/12/14 02:57:11;;;;;;;0.25;0.25;;;;;;;-0.55;100.00;100790.88;1784262;80;21134;-56
2020/12/14 02:59:39;;;;;;;0.08;0.08;;;;;;;-0.56;100.00;100796.45;1790117;79;21146;-56
2020/12/14 03:02:07;;;;;;;0.65;0.65;;;;;;;-0.57;100.00;100794.30;1753289;81;21207;-55
2020/12/14 03:04:35;;;;;;;0.20;0.20;;;;;;;-0.57;100.00;100794.30;1785125;79;21151;-55
2020/12/14 03:07:03;;;;;;;0.25;0.25;;;;;;;-0.56;100.00;100790.56;1786600;79;21166;-55
2020/12/14 03:09:30;;;;;;;0.35;0.35;;;;;;;-0.55;100.00;100792.22;1797585;79;21123;-55
2020/12/14 03:12:00;;;;;;;0.40;0.40;;;;;;;-0.54;100.00;100798.44;1750580;80;21471;-55
2020/12/14 03:14:29;;;;;;;0.80;0.47;;;;;;;-0.56;100.00;100795.94;1769029;79;21603;-55
2020/12/14 03:16:57;;;;;;;0.82;0.82;;;;;;;-0.54;100.00;100793.89;1785505;80;21143;-55
2020/12/14 03:19:25;;;;;;;0.68;0.68;;;;;;;-0.54;100.00;100797.92;1784230;80;21162;-56
2020/12/14 03:21:53;;;;;;;2.52;0.47;;;;;;;-0.55;100.00;100802.13;1767382;80;21569;-55
2020/12/14 03:24:20;;;;;;;0.10;0.10;;;;;;;-0.58;100.00;100797.98;1782166;80;21523;-55
2020/12/14 03:26:49;;;;;;;0.10;0.10;;;;;;;-0.56;100.00;100797.80;1784192;80;21107;-55
2020/12/14 03:29:17;;;;;;;0.57;0.57;;;;;;;-0.55;100.00;100803.47;1781719;79;21389;-55
2020/12/14 03:31:45;;;;;;;3.60;0.88;;;;;;;-0.57;100.00;100803.69;1790210;80;21146;-55
2020/12/14 03:34:13;;;;;;;0.25;0.25;;;;;;;-0.58;100.00;100810.06;1800233;79;21597;-55
2020/12/14 03:36:41;;;;;;;0.03;0.03;;;;;;;-0.57;100.00;100812.23;1774791;80;21158;-55
2020/12/14 03:39:08;;;;;;;0.10;0.10;;;;;;;-0.58;100.00;100811.41;1812621;78;21122;-55
2020/12/14 03:41:36;;;;;;;0.20;0.20;;;;;;;-0.58;100.00;100813.27;1823219;78;21080;-55
2020/12/14 03:44:04;;;;;;;0.10;0.10;;;;;;;-0.56;100.00;100820.62;1807935;78;21123;-55
2020/12/14 03:46:31;;;;;;;0.10;0.10;;;;;;;-0.56;100.00;100817.94;1816285;78;21126;-55
2020/12/14 03:49:00;;;;;;;0.33;0.33;;;;;;;-0.55;100.00;100816.37;1754939;80;21514;-55
2020/12/14 03:51:29;;;;;;;0.45;0.45;;;;;;;-0.55;100.00;100820.41;1757392;81;21182;-55
2020/12/14 03:53:57;;;;;;;0.62;0.62;;;;;;;-0.55;100.00;100824.43;1765333;79;21141;-56
2020/12/14 03:56:25;;;;;;;1.20;0.65;;;;;;;-0.55;100.00;100816.37;1779835;80;21107;-55
2020/12/14 03:58:53;;;;;;;0.10;0.10;;;;;;;-0.53;100.00;100820.22;1789958;79;21158;-55
2020/12/14 04:01:24;;;;;;;0.30;0.30;;;;;;;-0.52;100.00;100821.86;1780092;80;21109;-55
2020/12/14 04:03:52;;;;;;;0.20;0.20;;;;;;;-0.53;100.00;100822.91;1771435;81;21494;-55
2020/12/14 04:06:23;;;;;;;0.10;0.10;;;;;;;-0.52;100.00;100827.23;1771465;81;21652;-55
2020/12/14 04:08:52;;;;;;;0.60;0.55;;;;;;;-0.53;100.00;100823.72;1772931;79;21138;-55
2020/12/14 04:11:20;;;;;;;0.90;0.90;;;;;;;-0.53;100.00;100829.09;1803084;79;21098;-55
2020/12/14 04:13:48;;;;;;;0.75;0.62;;;;;;;-0.54;100.00;100824.77;1800076;79;21118;-55
2020/12/14 04:16:15;;;;;;;0.10;0.10;;;;;;;-0.55;100.00;100824.43;1771625;79;21142;-55
2020/12/14 04:18:43;;;;;;;0.25;0.25;;;;;;;-0.53;100.00;100825.59;1771418;81;21150;-55
2020/12/14 04:21:11;;;;;;;0.78;0.68;;;;;;;-0.54;100.00;100832.81;1771373;79;21138;-56
2020/12/14 04:23:38;;;;;;;0.35;0.35;;;;;;;-0.54;100.00;100833.34;1771433;81;21512;-56
2020/12/14 04:26:06;;;;;;;0.10;0.10;;;;;;;-0.55;100.00;100837.03;1795969;79;21115;-55
2020/12/14 04:28:34;;;;;;;2.77;0.70;;;;;;;-0.55;100.00;100837.85;1803743;79;21509;-55
2020/12/14 04:31:01;;;;;;;0.30;0.30;;;;;;;-0.54;100.00;100834.16;1768446;79;21150;-56
2020/12/14 04:33:30;;;;;;;0.23;0.23;;;;;;;-0.53;100.00;100839.01;1759647;80;21185;-56
2020/12/14 04:35:58;;;;;;;0.03;0.03;;;;;;;-0.54;100.00;100831.99;1771606;80;21159;-56
2020/12/14 04:38:26;;;;;;;0.10;0.10;;;;;;;-0.56;100.00;100837.55;1761673;81;21110;-55
2020/12/14 04:40:53;;;;;;;0.37;0.37;;;;;;;-0.55;100.00;100835.69;1735506;80;21481;-55
2020/12/14 04:43:21;;;;;;;0.50;0.50;;;;;;;-0.54;100.00;100836.84;1729754;81;21761;-55
2020/12/14 04:45:49;;;;;;;0.10;0.10;;;;;;;-0.55;100.00;100839.19;1739524;80;21131;-56
2020/12/14 04:48:17;;;;;;;0.85;0.85;;;;;;;-0.56;100.00;100841.58;1747155;80;21193;-56
2020/12/14 04:50:45;;;;;;;0.93;0.93;;;;;;;-0.56;100.00;100834.04;1712769;81;21454;-56
2020/12/14 04:53:15;;;;;;;0.72;0.72;;;;;;;-0.55;100.00;100843.22;1759689;81;21588;-55
2020/12/14 04:55:43;;;;;;;0.10;0.10;;;;;;;-0.55;100.00;100843.22;1777826;80;21167;-56
2020/12/14 04:58:10;;;;;;;0.05;0.05;;;;;;;-0.57;100.00;100841.27;1749807;80;21258;-56
2020/12/14 05:00:38;;;;;;;4.40;1.52;;;;;;;-0.57;100.00;100843.95;1756727;80;21126;-56
2020/12/14 05:03:06;;;;;;;0.17;0.17;;;;;;;-0.56;100.00;100842.92;1759681;81;21120;-56
2020/12/14 05:05:34;;;;;;;0.20;0.20;;;;;;;-0.56;100.00;100842.92;1783378;80;21139;-56
2020/12/14 05:08:04;;;;;;;0.10;0.10;;;;;;;-0.55;100.00;100848.59;1771074;80;21195;-56
2020/12/14 05:10:33;;;;;;;0.35;0.35;;;;;;;-0.56;100.00;100842.09;1757292;81;21616;-56
2020/12/14 05:13:01;;;;;;;0.47;0.47;;;;;;;-0.56;100.00;100840.23;1787421;80;21391;-56
2020/12/14 05:15:31;;;;;;;0.00;0.00;;;;;;;-0.56;100.00;100846.13;1704172;81;21131;-55
2020/12/14 05:18:14;;;;;;;0.10;0.10;;;;;;;-0.58;100.00;100843.62;1762866;80;21135;-56
2020/12/14 05:20:42;;;;;;;0.00;0.00;;;;;;;-0.58;100.00;100844.96;1752495;81;21190;-56
2020/12/14 05:23:10;;;;;;;0.00;0.00;;;;;;;-0.58;100.00;100850.33;1754074;81;21159;-56
2020/12/14 05:25:38;;;;;;;0.37;0.37;;;;;;;-0.57;100.00;100854.70;1770625;80;21167;-56
2020/12/14 05:28:19;;;;;;;2.10;0.98;;;;;;;-0.58;100.00;100857.05;1758668;81;21102;-55
2020/12/14 05:30:48;;;;;;;0.28;0.28;;;;;;;-0.58;100.00;100858.91;1770473;80;21172;-55
2020/12/14 05:33:22;;;;;;;0.10;0.10;;;;;;;-0.58;100.00;100862.41;1757472;81;21134;-55
2020/12/14 05:35:50;;;;;;;0.13;0.13;;;;;;;-0.56;100.00;100859.02;1740463;81;21127;-56
2020/12/14 05:38:29;;;;;;;1.52;0.95;;;;;;;-0.55;100.00;100858.50;1728198;81;21230;-56
2020/12/14 05:40:59;;;;;;;0.35;0.35;;;;;;;-0.56;100.00;100856.34;1756236;81;21153;-55
2020/12/14 05:43:30;;;;;;;0.55;0.55;;;;;;;-0.56;100.00;100865.73;1765827;80;21242;-55
2020/12/14 05:46:16;;;;;;;0.00;0.00;;;;;;;-0.55;100.00;100864.70;1756236;81;21454;-55
2020/12/14 05:48:44;;;;;;;0.00;0.00;;;;;;;-0.54;100.00;100865.03;1781722;80;21170;-56
2020/12/14 05:51:14;;;;;;;0.68;0.68;;;;;;;-0.56;100.00;100874.31;1780876;80;21176;-56
2020/12/14 05:53:51;;;;;;;0.10;0.10;;;;;;;-0.57;100.00;100881.54;1786429;80;21414;-55
2020/12/14 05:56:19;;;;;;;0.30;0.30;;;;;;;-0.56;100.00;100876.47;1793348;80;21118;-56
2020/12/14 05:58:50;;;;;;;0.10;0.10;;;;;;;-0.55;100.00;100876.78;1790338;79;21613;-55
2020/12/14 06:01:19;;;;;;;;;;;;;;;-0.54;100.00;100878.97;1794669;80;21169;-55
2020/12/14 06:03:46;;;;;;;0.62;0.62;;;;;;;-0.54;100.00;100878.45;1759079;80;20481;-55
2020/12/14 06:06:14;;;;;;;0.37;0.37;;;;;;;-0.54;100.00;100882.48;1740522;80;21091;-56
2020/12/14 06:08:59;;;;;;;0.20;0.20;;;;;;;-0.53;100.00;100874.73;1790651;79;21123;-55
2020/12/14 06:11:26;;;;;;;0.23;0.23;;;;;;;-0.53;100.00;100880.10;1738032;81;21154;-55
2020/12/14 06:13:57;;;;;;;0.23;0.23;;;;;;;-0.51;100.00;100881.26;1751186;81;21697;-54
2020/12/14 06:16:26;;;;;;;0.10;0.10;;;;;;;-0.51;100.00;100885.28;1775277;80;21470;-57
2020/12/14 06:18:54;;;;;;;0.40;0.30;;;;;;;-0.50;100.00;100893.12;1757974;81;21514;-56
2020/12/14 06:21:39;;;;;;;0.40;0.40;;;;;;;-0.50;100.00;100891.78;1741910;81;21154;-56
2020/12/14 06:24:11;;;;;;;0.10;0.10;;;;;;;-0.49;100.00;100896.66;1759681;81;21598;-56
2020/12/14 06:26:39;;;;;;;0.00;0.00;;;;;;;-0.50;100.00;100894.47;1786938;80;21182;-56
2020/12/14 06:29:07;;;;;;;0.57;0.57;;;;;;;-0.49;100.00;100896.14;1787214;80;21516;-56
2020/12/14 06:31:38;;;;;;;0.65;0.65;;;;;;;-0.48;100.00;100896.45;1784249;80;21123;-55
2020/12/14 06:34:34;;;;;;;0.20;0.20;;;;;;;-0.50;100.00;100894.47;1784233;80;21123;-56
2020/12/14 06:37:02;;;;;;;0.00;0.00;;;;;;;-0.49;100.00;100899.35;1784010;80;21115;-56
2020/12/14 06:39:33;;;;;;;0.50;0.50;;;;;;;-0.47;100.00;100900.81;1783970;80;21692;-57
2020/12/14 06:42:15;;;;;;;;;;;;;;;-0.42;100.00;100900.23;1786661;80;21525;-57
2020/12/14 06:44:49;;;;;;;0.72;0.20;;;;;;;-0.41;100.00;100895.16;1784032;80;20448;-57
2020/12/14 06:47:18;;;;;;;0.10;0.10;;;;;;;-0.40;100.00;100898.15;1784288;80;21135;-56
2020/12/14 06:49:47;;;;;;;0.50;0.50;;;;;;;-0.38;100.00;100897.97;1784326;80;21155;-56
2020/12/14 06:52:34;;;;;;;0.10;0.10;;;;;;;-0.33;100.00;100896.86;1784390;80;21150;-56
2020/12/14 06:55:02;;;;;;;0.00;0.00;;;;;;;-0.30;100.00;100904.52;1784518;80;21252;-57
2020/12/14 06:57:39;;;;;;;0.37;0.37;;;;;;;-0.30;100.00;100904.00;1784467;80;21115;-57
2020/12/14 07:00:08;;;;;;;0.45;0.45;;;;;;;-0.30;100.00;100908.55;1784419;80;21159;-57
2020/12/14 07:02:39;;;;;;;0.10;0.10;;;;;;;-0.28;100.00;100910.53;1784461;80;21161;-57
2020/12/14 07:05:32;;;;;;;0.85;0.75;;;;;;;-0.28;100.00;100914.04;1784363;80;21166;-56
2020/12/14 07:07:59;;;;;;;;;;;;;;;-0.27;100.00;100916.23;1781871;79;21154;-57
2020/12/14 07:10:28;;;;;;;0.00;0.00;;;;;;;-0.25;100.00;100919.53;1786686;79;20266;-57
2020/12/14 07:12:56;;;;;;;0.50;0.50;;;;;;;-0.20;100.00;100921.63;1797598;78;21103;-57
2020/12/14 07:15:32;;;;;;;0.47;0.47;;;;;;;-0.17;100.00;100920.73;1782571;78;22353;-56
2020/12/14 07:18:06;;;;;;;0.13;0.13;;;;;;;-0.17;100.00;100924.77;1786204;78;21139;-59
2020/12/14 07:20:34;;;;;;;0.85;0.72;;;;;;;-0.16;100.00;100927.76;1787193;79;21083;-57
2020/12/14 07:23:07;;;;;;;1.65;0.78;;;;;;;-0.15;100.00;100933.95;1784356;80;21109;-57
2020/12/14 07:25:34;;;;;;;;;;;;;;;-0.11;100.00;100935.23;1786964;80;21127;-57
2020/12/14 07:28:03;;;;;;;0.00;0.00;;;;;;;-0.09;100.00;100932.66;1784325;80;20250;-57
2020/12/14 07:30:31;;;;;;;3.35;0.47;;;;;;;-0.08;100.00;100934.83;1800086;78;21538;-57
2020/12/14 07:32:59;;;;;;;0.10;0.10;;;;;;;-0.08;100.00;100934.31;1783865;79;21580;-57
2020/12/14 07:35:27;;;;;;;0.30;0.30;;;;;;;-0.04;100.00;100937.45;1784027;80;21529;-57
2020/12/14 07:37:55;;;;;;;0.85;0.70;;;;;;;-0.02;100.00;100938.91;1784809;79;21131;-57
2020/12/14 07:40:23;;;;;;;0.53;0.53;;;;;;;-0.01;100.00;100939.21;1782954;80;21190;-57
2020/12/14 07:42:51;;;;;;;0.20;0.20;;;;;;;0.01;100.00;100937.68;1762361;80;21574;-57
2020/12/14 07:45:20;;;;;;;0.72;0.72;;;;;;;0.07;100.00;100941.42;1762065;81;21161;-57
2020/12/14 07:47:52;;;;;;;0.53;0.53;;;;;;;0.14;100.00;100944.98;1771878;80;21134;-57
2020/12/14 07:50:26;;;;;;;0.35;0.35;;;;;;;0.17;100.00;100948.13;1730736;81;21522;-57
2020/12/14 07:52:54;;;;;;;0.03;0.03;;;;;;;0.20;100.00;100936.96;1762728;80;21130;-55
2020/12/14 07:55:23;;;;;;;0.35;0.35;;;;;;;0.21;100.00;100937.78;1763029;80;21578;-54
2020/12/14 07:57:51;;;;;;;0.10;0.10;;;;;;;0.24;100.00;100938.72;1762096;81;21113;-54
2020/12/14 08:00:24;;;;;;;0.10;0.10;;;;;;;0.25;100.00;100940.40;1772093;80;21118;-55
2020/12/14 08:03:01;;;;;;;0.10;0.10;;;;;;;0.23;100.00;100937.08;1753788;80;21431;-56
2020/12/14 08:05:24;;;;;;;0.10;0.10;;;;;;;0.21;100.00;100941.82;1792711;79;21419;-55
2020/12/14 08:08:03;;;;;;;0.55;0.55;;;;;;;0.21;100.00;100943.16;1751310;81;21123;-55
2020/12/14 08:10:33;;;;;;;0.00;0.00;;;;;;;0.21;100.00;100936.44;1761000;80;21611;-55
2020/12/14 08:13:10;;;;;;;0.23;0.17;;;;;;;0.21;100.00;100936.44;1780211;80;21414;-56
2020/12/14 08:15:42;;;;;;;0.20;0.20;;;;;;;0.20;100.00;100939.65;1762649;79;21504;-55
2020/12/14 08:18:11;;;;;;;0.05;0.05;;;;;;;0.21;100.00;100936.44;1777024;78;21167;-55
2020/12/14 08:20:41;;;;;;;0.05;0.05;;;;;;;0.24;100.00;100933.34;1767814;81;21537;-55
2020/12/14 08:23:21;;;;;;;0.20;0.20;;;;;;;0.27;100.00;100938.31;1791694;80;21123;-55
2020/12/14 08:25:52;;;;;;;0.95;0.93;;;;;;;0.30;100.00;100937.94;1789123;78;21474;-56
2020/12/14 08:28:31;;;;;;;0.40;0.40;;;;;;;0.32;100.00;100939.92;1791070;80;21601;-54
2020/12/14 08:30:59;;;;;;;0.13;0.13;;;;;;;0.37;100.00;100941.98;1795153;78;21154;-54
2020/12/14 08:33:27;;;;;;;0.72;0.45;;;;;;;0.40;100.00;100933.02;1733908;81;21159;-55
2020/12/14 08:35:55;;;;;;;0.82;0.82;;;;;;;0.46;100.00;100945.34;1764355;80;21121;-55
2020/12/14 08:38:24;;;;;;;0.88;0.88;;;;;;;0.47;100.00;100941.61;1762913;80;21150;-55
2020/12/14 08:41:03;;;;;;;0.00;0.00;;;;;;;0.47;100.00;100932.20;1762699;80;21571;-55
2020/12/14 08:43:35;;;;;;;0.98;0.53;;;;;;;0.47;100.00;100925.48;1784245;80;21160;-55
2020/12/14 08:46:11;;;;;;;0.17;0.17;;;;;;;0.43;100.00;100931.27;1787537;78;21497;-55
2020/12/14 08:48:55;;;;;;;0.30;0.30;;;;;;;0.43;100.00;100923.20;1767664;81;21163;-55
2020/12/14 08:51:31;;;;;;;0.20;0.20;;;;;;;0.48;100.00;100927.16;1777442;79;21138;-55
2020/12/14 08:54:15;;;;;;;1.42;0.82;;;;;;;0.53;100.00;100913.94;1785424;79;21577;-55
2020/12/14 08:56:43;;;;;;;0.20;0.20;;;;;;;0.54;100.00;100923.64;1791179;79;21163;-55
2020/12/14 08:59:17;;;;;;;0.40;0.40;;;;;;;0.50;100.00;100924.58;1788923;79;21116;-55
2020/12/14 09:02:03;;;;;;;0.03;0.03;;;;;;;0.48;100.00;100923.12;1762253;80;21411;-54
2020/12/14 09:04:32;;;;;;;0.20;0.20;;;;;;;0.48;100.00;100922.60;1785455;79;21099;-55
2020/12/14 09:07:00;;;;;;;0.10;0.10;;;;;;;0.50;100.00;100920.55;1799285;79;21080;-55
2020/12/14 09:09:38;;;;;;;1.27;1.17;;;;;;;0.52;100.00;100923.02;1749932;81;21152;-54
2020/12/14 09:12:11;;;;;;;0.30;0.30;;;;;;;0.50;100.00;100924.58;1781881;79;21447;-54
2020/12/14 09:14:40;;;;;;;0.30;0.30;;;;;;;0.50;100.00;100915.69;1754285;80;21555;-54
2020/12/14 09:17:17;;;;;;;0.28;0.28;;;;;;;0.47;100.00;100917.41;1756669;80;21163;-54
2020/12/14 09:19:51;;;;;;;0.20;0.20;;;;;;;0.44;100.00;100918.64;1766151;80;21208;-54
2020/12/14 09:22:22;;;;;;;0.10;0.10;;;;;;;0.43;100.00;100927.23;1757428;80;21627;-54
2020/12/14 09:24:50;;;;;;;2.90;0.35;;;;;;;0.40;100.00;100934.36;1777000;80;21491;-54
2020/12/14 09:27:18;;;;;;;0.10;0.10;;;;;;;0.40;100.00;100929.51;1770438;80;21135;-54
2020/12/14 09:29:45;;;;;;;0.90;0.90;;;;;;;0.38;100.00;100924.31;1756537;81;21222;-54
2020/12/14 09:32:13;;;;;;;0.30;0.30;;;;;;;0.33;100.00;100930.81;1791077;80;21115;-55
2020/12/14 09:34:41;;;;;;;0.45;0.45;;;;;;;0.31;100.00;100930.18;1792346;80;21605;-54
2020/12/14 09:37:09;;;;;;;0.20;0.20;;;;;;;0.33;100.00;100930.81;1790705;78;21136;-54
2020/12/14 09:39:39;;;;;;;0.70;0.70;;;;;;;0.33;100.00;100930.81;1788029;80;21119;-54
2020/12/14 09:42:06;;;;;;;0.35;0.35;;;;;;;0.33;100.00;100934.02;1790196;78;21129;-54
2020/12/14 09:44:34;;;;;;;0.30;0.30;;;;;;;0.32;100.00;100937.23;1790751;80;21151;-54
2020/12/14 09:47:04;;;;;;;0.00;0.00;;;;;;;0.32;100.00;100932.34;1791157;78;21171;-54
2020/12/14 09:49:31;;;;;;;0.20;0.20;;;;;;;0.30;100.00;100923.16;1789171;80;21653;-54
2020/12/14 09:51:59;;;;;;;0.00;0.00;;;;;;;0.30;100.00;100927.19;1790622;78;21151;-53
2020/12/14 09:54:27;;;;;;;0.00;0.00;;;;;;;0.30;100.00;100935.78;1763694;80;21139;-54
2020/12/14 09:56:54;;;;;;;0.10;0.10;;;;;;;0.31;100.00;100934.21;1762284;80;21427;-54
2020/12/14 09:59:22;;;;;;;0.28;0.28;;;;;;;0.32;100.00;100932.34;1762213;81;21143;-53
2020/12/14 10:01:50;;;;;;;0.10;0.10;;;;;;;0.31;100.00;100936.08;1761670;80;21127;-53
2020/12/14 10:04:17;;;;;;;1.12;0.33;;;;;;;0.28;100.00;100935.14;1778625;80;21119;-54
2020/12/14 10:06:49;;;;;;;0.00;0.00;;;;;;;0.24;100.00;100937.38;1777605;80;21127;-54
2020/12/14 10:09:16;;;;;;;0.00;0.00;;;;;;;0.21;100.00;100935.92;1764920;80;21147;-53
2020/12/14 10:11:45;;;;;;;0.15;0.15;;;;;;;0.19;100.00;100929.09;1765034;80;21161;-54
2020/12/14 10:14:12;;;;;;;0.57;0.33;;;;;;;0.19;100.00;100934.46;1753639;80;21123;-54
2020/12/14 10:16:40;;;;;;;0.30;0.30;;;;;;;0.19;100.00;100931.77;1765719;80;21117;-54
2020/12/14 10:19:10;;;;;;;0.00;0.00;;;;;;;0.23;100.00;100929.53;1762097;80;21441;-54
2020/12/14 10:21:38;;;;;;;0.33;0.33;;;;;;;0.22;100.00;100928.68;1762519;80;21560;-53
2020/12/14 10:24:06;;;;;;;0.40;0.40;;;;;;;0.21;100.00;100929.72;1763158;80;21130;-54
2020/12/14 10:26:36;;;;;;;0.00;0.00;;;;;;;0.23;100.00;100923.64;1762121;80;21537;-54
2020/12/14 10:29:03;;;;;;;0.08;0.08;;;;;;;0.24;100.00;100920.42;1765604;80;21155;-53
2020/12/14 10:31:31;;;;;;;0.10;0.10;;;;;;;0.25;100.00;100917.55;1773140;80;21140;-54
2020/12/14 10:34:00;;;;;;;1.07;1.07;;;;;;;0.25;100.00;100920.24;1767408;81;21168;-53
2020/12/14 10:36:28;;;;;;;0.10;0.10;;;;;;;0.27;100.00;100920.02;1749220;81;21506;-54
2020/12/14 10:38:56;;;;;;;0.30;0.23;;;;;;;0.27;100.00;100916.81;1759487;81;21126;-53
2020/12/14 10:41:23;;;;;;;0.37;0.37;;;;;;;0.30;100.00;100918.30;1776799;80;21119;-54
2020/12/14 10:43:51;;;;;;;0.45;0.40;;;;;;;0.35;100.00;100915.31;1752661;81;21160;-54
2020/12/14 10:46:23;;;;;;;0.70;0.50;;;;;;;0.38;100.00;100917.59;1760767;81;21632;-54
2020/12/14 10:48:51;;;;;;;0.23;0.23;;;;;;;0.42;100.00;100916.17;1766152;80;21147;-54
2020/12/14 10:51:19;;;;;;;0.75;0.57;;;;;;;0.45;100.00;100908.75;1730497;81;21147;-54
2020/12/14 10:53:47;;;;;;;0.72;0.60;;;;;;;0.47;100.00;100903.97;1757800;81;21138;-53
2020/12/14 10:56:15;;;;;;;0.00;0.00;;;;;;;0.48;100.00;100905.64;1754461;81;21138;-53
2020/12/14 10:58:43;;;;;;;0.55;0.55;;;;;;;0.45;100.00;100906.88;1771625;80;21124;-54
2020/12/14 11:01:12;;;;;;;0.37;0.37;;;;;;;0.42;100.00;100906.77;1756840;80;21074;-53
2020/12/14 11:03:40;;;;;;;0.10;0.10;;;;;;;0.41;100.00;100909.64;1754470;81;21125;-53
2020/12/14 11:06:07;;;;;;;1.17;0.30;;;;;;;0.42;100.00;100909.45;1758952;80;21561;-53
2020/12/14 11:08:35;;;;;;;0.62;0.62;;;;;;;0.42;100.00;100912.14;1784951;79;21115;-53
2020/12/14 11:11:02;;;;;;;0.30;0.30;;;;;;;0.44;100.00;100921.33;1758965;80;21124;-53
2020/12/14 11:13:30;;;;;;;0.30;0.30;;;;;;;0.46;100.00;100923.83;1756676;81;21153;-53
2020/12/14 11:15:59;;;;;;;0.37;0.37;;;;;;;0.47;100.00;100924.98;1753849;80;21449;-53
2020/12/14 11:18:29;;;;;;;1.55;0.80;;;;;;;0.46;100.00;100931.90;1756181;81;21135;-53
2020/12/14 11:20:57;;;;;;;0.45;0.45;;;;;;;0.41;100.00;100944.59;1788421;79;21143;-53
2020/12/14 11:23:25;;;;;;;0.28;0.28;;;;;;;0.35;100.00;100936.83;1787566;80;21111;-53
2020/12/14 11:25:52;;;;;;;1.17;1.05;;;;;;;0.32;100.00;100934.55;1780796;80;21123;-53
2020/12/14 11:28:21;;;;;;;1.07;0.75;;;;;;;0.29;100.00;100934.92;1780106;80;21131;-53
2020/12/14 11:30:48;;;;;;;0.20;0.20;;;;;;;0.26;100.00;100933.16;1763206;80;21474;-53
2020/12/14 11:33:16;;;;;;;0.33;0.33;;;;;;;0.24;100.00;100929.31;1749119;79;21161;-53